sensor_id;sensor_type;location;lat;lon;timestamp;P1;durP1;ratioP1;P2;durP2;ratioP2
51491;SDS011;37569;50.548;8.778;2024-02-14T00:03:53;6.2;;;3.9;;
51491;SDS011;37569;50.548;8.778;2024-02-14T00:08:53;6.3;;;3.8;;
51491;SDS011;37569;50.548;8.778;2024-02-14T00:13:54;4.8;;;3.4;;
51491;SDS011;37569;50.548;8.778;2024-02-14T00:18:54;3.9;;;3.3;;
51491;SDS011;37569;50.548;8.778;2024-02-14T00:23:54;6.1;;;3.2;;
51491;SDS011;37569;50.548;8.778;2024-02-14T00:28:55;6.7;;;3.4;;
51491;SDS011;37569;50.548;8.778;2024-02-14T00:33:55;4.9;;;3;;
51491;SDS011;37569;50.548;8.778;2024-02-14T00:38:56;6.5;;;3.3;;
51491;SDS011;37569;50.548;8.778;2024-02-14T00:43:56;5;;;3;;
51491;SDS011;37569;50.548;8.778;2024-02-14T00:48:56;6.3;;;3.2;;
51491;SDS011;37569;50.548;8.778;2024-02-14T00:53:57;5.3;;;3.1;;
51491;SDS011;37569;50.548;8.778;2024-02-14T00:58:57;3.9;;;3.1;;
51491;SDS011;37569;50.548;8.778;2024-02-14T01:03:57;6.5;;;3.1;;
51491;SDS011;37569;50.548;8.778;2024-02-14T01:08:58;4.8;;;3.3;;
51491;SDS011;37569;50.548;8.778;2024-02-14T01:13:58;5.8;;;3.4;;
51491;SDS011;37569;50.548;8.778;2024-02-14T01:18:59;5.6;;;3.2;;
51491;SDS011;37569;50.548;8.778;2024-02-14T01:23:59;4.9;;;3.2;;
51491;SDS011;37569;50.548;8.778;2024-02-14T01:28:59;4.2;;;3.3;;
51491;SDS011;37569;50.548;8.778;2024-02-14T01:34:00;4.9;;;3;;
51491;SDS011;37569;50.548;8.778;2024-02-14T01:39:00;5.6;;;3.4;;
51491;SDS011;37569;50.548;8.778;2024-02-14T01:44:00;4.8;;;3.4;;
51491;SDS011;37569;50.548;8.778;2024-02-14T01:49:01;4.6;;;3.2;;
51491;SDS011;37569;50.548;8.778;2024-02-14T01:54:01;6.3;;;3.2;;
51491;SDS011;37569;50.548;8.778;2024-02-14T01:59:02;4.4;;;3;;
51491;SDS011;37569;50.548;8.778;2024-02-14T02:04:02;5.4;;;3.4;;
51491;SDS011;37569;50.548;8.778;2024-02-14T02:09:02;4.4;;;3.2;;
51491;SDS011;37569;50.548;8.778;2024-02-14T02:14:03;5.4;;;3.2;;
51491;SDS011;37569;50.548;8.778;2024-02-14T02:19:03;5;;;3.2;;
51491;SDS011;37569;50.548;8.778;2024-02-14T02:24:04;6.7;;;3.1;;
51491;SDS011;37569;50.548;8.778;2024-02-14T02:29:04;4;;;3.1;;
51491;SDS011;37569;50.548;8.778;2024-02-14T02:34:04;6.1;;;4;;
51491;SDS011;37569;50.548;8.778;2024-02-14T02:39:05;5.6;;;3.2;;
51491;SDS011;37569;50.548;8.778;2024-02-14T02:44:05;5.7;;;3.5;;
51491;SDS011;37569;50.548;8.778;2024-02-14T02:49:06;6.5;;;4.2;;
51491;SDS011;37569;50.548;8.778;2024-02-14T02:54:06;5.5;;;3.9;;
51491;SDS011;37569;50.548;8.778;2024-02-14T02:59:06;5.3;;;4.1;;
51491;SDS011;37569;50.548;8.778;2024-02-14T03:04:06;6.1;;;3.9;;
51491;SDS011;37569;50.548;8.778;2024-02-14T03:09:07;7.3;;;3.9;;
51491;SDS011;37569;50.548;8.778;2024-02-14T03:14:07;4.9;;;3.6;;
51491;SDS011;37569;50.548;8.778;2024-02-14T03:19:08;5.9;;;3.6;;
51491;SDS011;37569;50.548;8.778;2024-02-14T03:24:08;6;;;4;;
51491;SDS011;37569;50.548;8.778;2024-02-14T03:29:08;6.1;;;3.6;;
51491;SDS011;37569;50.548;8.778;2024-02-14T03:34:09;7.2;;;3.7;;
51491;SDS011;37569;50.548;8.778;2024-02-14T03:39:09;6.3;;;3.8;;
51491;SDS011;37569;50.548;8.778;2024-02-14T03:44:09;6.8;;;3.6;;
51491;SDS011;37569;50.548;8.778;2024-02-14T03:49:10;5.2;;;3.3;;
51491;SDS011;37569;50.548;8.778;2024-02-14T03:54:10;7;;;4;;
51491;SDS011;37569;50.548;8.778;2024-02-14T03:59:10;5.4;;;3.5;;
51491;SDS011;37569;50.548;8.778;2024-02-14T04:04:11;6.5;;;3.8;;
51491;SDS011;37569;50.548;8.778;2024-02-14T04:09:11;6.5;;;4.2;;
51491;SDS011;37569;50.548;8.778;2024-02-14T04:14:12;6.6;;;3.5;;
51491;SDS011;37569;50.548;8.778;2024-02-14T04:19:12;5.2;;;3.7;;
51491;SDS011;37569;50.548;8.778;2024-02-14T04:24:12;6.5;;;4.1;;
51491;SDS011;37569;50.548;8.778;2024-02-14T04:29:13;6.4;;;4.2;;
51491;SDS011;37569;50.548;8.778;2024-02-14T04:34:13;5.6;;;4;;
51491;SDS011;37569;50.548;8.778;2024-02-14T04:39:14;6.1;;;3.6;;
51491;SDS011;37569;50.548;8.778;2024-02-14T04:44:14;6.5;;;3.8;;
51491;SDS011;37569;50.548;8.778;2024-02-14T04:49:14;7.4;;;4.1;;
51491;SDS011;37569;50.548;8.778;2024-02-14T04:54:15;5.8;;;3.8;;
51491;SDS011;37569;50.548;8.778;2024-02-14T04:59:15;6.2;;;3.8;;
51491;SDS011;37569;50.548;8.778;2024-02-14T05:04:15;7.3;;;4.2;;
51491;SDS011;37569;50.548;8.778;2024-02-14T05:09:16;6;;;4;;
51491;SDS011;37569;50.548;8.778;2024-02-14T05:14:16;8;;;4.5;;
51491;SDS011;37569;50.548;8.778;2024-02-14T05:19:17;7.3;;;4.8;;
51491;SDS011;37569;50.548;8.778;2024-02-14T05:24:17;8.9;;;4.8;;
51491;SDS011;37569;50.548;8.778;2024-02-14T05:29:17;9.2;;;4.5;;
51491;SDS011;37569;50.548;8.778;2024-02-14T05:34:18;8.4;;;4.5;;
51491;SDS011;37569;50.548;8.778;2024-02-14T05:39:18;9.7;;;4.5;;
51491;SDS011;37569;50.548;8.778;2024-02-14T05:44:18;6.9;;;4.7;;
51491;SDS011;37569;50.548;8.778;2024-02-14T05:49:19;8.4;;;4.5;;
51491;SDS011;37569;50.548;8.778;2024-02-14T05:54:19;7.5;;;4.3;;
51491;SDS011;37569;50.548;8.778;2024-02-14T05:59:20;6;;;4;;
51491;SDS011;37569;50.548;8.778;2024-02-14T06:04:20;5.9;;;4.1;;
51491;SDS011;37569;50.548;8.778;2024-02-14T06:09:20;7.7;;;4.6;;
51491;SDS011;37569;50.548;8.778;2024-02-14T06:14:21;6.2;;;4.4;;
51491;SDS011;37569;50.548;8.778;2024-02-14T06:19:22;8.7;;;4.3;;
51491;SDS011;37569;50.548;8.778;2024-02-14T06:24:22;5.8;;;4.3;;
51491;SDS011;37569;50.548;8.778;2024-02-14T06:29:22;7.2;;;4.4;;
51491;SDS011;37569;50.548;8.778;2024-02-14T06:34:22;7.3;;;4.3;;
51491;SDS011;37569;50.548;8.778;2024-02-14T06:39:23;7.5;;;4.3;;
51491;SDS011;37569;50.548;8.778;2024-02-14T06:44:23;6.2;;;4.6;;
51491;SDS011;37569;50.548;8.778;2024-02-14T06:49:23;7.8;;;4.7;;
51491;SDS011;37569;50.548;8.778;2024-02-14T06:54:24;7.7;;;4.7;;
51491;SDS011;37569;50.548;8.778;2024-02-14T06:59:24;6;;;4.5;;
51491;SDS011;37569;50.548;8.778;2024-02-14T07:04:25;6.5;;;4.6;;
51491;SDS011;37569;50.548;8.778;2024-02-14T07:09:25;7;;;4.6;;
51491;SDS011;37569;50.548;8.778;2024-02-14T07:14:25;5.5;;;4.3;;
51491;SDS011;37569;50.548;8.778;2024-02-14T07:19:26;6.4;;;4.3;;
51491;SDS011;37569;50.548;8.778;2024-02-14T07:24:26;6.7;;;4.6;;
51491;SDS011;37569;50.548;8.778;2024-02-14T07:29:27;6.8;;;4.3;;
51491;SDS011;37569;50.548;8.778;2024-02-14T07:34:27;8.1;;;4.5;;
51491;SDS011;37569;50.548;8.778;2024-02-14T07:39:27;5.9;;;4.5;;
51491;SDS011;37569;50.548;8.778;2024-02-14T07:44:28;6.9;;;4.5;;
51491;SDS011;37569;50.548;8.778;2024-02-14T07:49:28;5.8;;;4.3;;
51491;SDS011;37569;50.548;8.778;2024-02-14T07:54:29;6.9;;;4;;
51491;SDS011;37569;50.548;8.778;2024-02-14T07:59:29;7.3;;;4.5;;
51491;SDS011;37569;50.548;8.778;2024-02-14T08:04:29;5.7;;;4.2;;
51491;SDS011;37569;50.548;8.778;2024-02-14T08:09:30;7;;;4.1;;
51491;SDS011;37569;50.548;8.778;2024-02-14T08:14:30;8.7;;;4.2;;
51491;SDS011;37569;50.548;8.778;2024-02-14T08:19:31;7.2;;;3.8;;
51491;SDS011;37569;50.548;8.778;2024-02-14T08:24:31;6.7;;;3.6;;
51491;SDS011;37569;50.548;8.778;2024-02-14T08:29:32;6.3;;;4.1;;
51491;SDS011;37569;50.548;8.778;2024-02-14T08:34:32;6.4;;;3.8;;
51491;SDS011;37569;50.548;8.778;2024-02-14T08:39:33;7;;;3.9;;
51491;SDS011;37569;50.548;8.778;2024-02-14T08:44:33;6;;;4;;
51491;SDS011;37569;50.548;8.778;2024-02-14T08:49:33;8.9;;;4;;
51491;SDS011;37569;50.548;8.778;2024-02-14T08:54:34;6.2;;;3.8;;
51491;SDS011;37569;50.548;8.778;2024-02-14T08:59:34;6.4;;;3.8;;
51491;SDS011;37569;50.548;8.778;2024-02-14T09:04:35;8.6;;;3.8;;
51491;SDS011;37569;50.548;8.778;2024-02-14T09:09:35;5.7;;;3.9;;
51491;SDS011;37569;50.548;8.778;2024-02-14T09:14:36;8;;;4;;
51491;SDS011;37569;50.548;8.778;2024-02-14T09:19:36;7.2;;;4.1;;
51491;SDS011;37569;50.548;8.778;2024-02-14T09:24:37;4.8;;;3.5;;
51491;SDS011;37569;50.548;8.778;2024-02-14T09:29:37;5.9;;;3.9;;
51491;SDS011;37569;50.548;8.778;2024-02-14T09:34:37;4.7;;;3.5;;
51491;SDS011;37569;50.548;8.778;2024-02-14T09:39:38;5.9;;;4;;
51491;SDS011;37569;50.548;8.778;2024-02-14T09:44:38;7.2;;;3.7;;
51491;SDS011;37569;50.548;8.778;2024-02-14T09:49:39;5.3;;;3.5;;
51491;SDS011;37569;50.548;8.778;2024-02-14T09:54:39;6;;;3.5;;
51491;SDS011;37569;50.548;8.778;2024-02-14T09:59:40;7.1;;;3.7;;
51491;SDS011;37569;50.548;8.778;2024-02-14T10:04:40;5;;;3.5;;
51491;SDS011;37569;50.548;8.778;2024-02-14T10:09:41;6.1;;;3.5;;
51491;SDS011;37569;50.548;8.778;2024-02-14T10:14:41;5.8;;;3.5;;
51491;SDS011;37569;50.548;8.778;2024-02-14T10:19:42;4.6;;;3.1;;
51491;SDS011;37569;50.548;8.778;2024-02-14T10:24:42;4.4;;;3.3;;
51491;SDS011;37569;50.548;8.778;2024-02-14T10:29:43;6.3;;;3.2;;
51491;SDS011;37569;50.548;8.778;2024-02-14T10:34:43;5.3;;;3.3;;
51491;SDS011;37569;50.548;8.778;2024-02-14T10:39:44;5.4;;;3.3;;
51491;SDS011;37569;50.548;8.778;2024-02-14T10:44:45;5.9;;;3.3;;
51491;SDS011;37569;50.548;8.778;2024-02-14T10:49:45;6;;;3.3;;
51491;SDS011;37569;50.548;8.778;2024-02-14T10:54:48;5.2;;;3.1;;
51491;SDS011;37569;50.548;8.778;2024-02-14T10:59:46;4.3;;;2.9;;
51491;SDS011;37569;50.548;8.778;2024-02-14T11:04:47;5.6;;;3.3;;
51491;SDS011;37569;50.548;8.778;2024-02-14T11:09:47;4.9;;;3;;
51491;SDS011;37569;50.548;8.778;2024-02-14T11:14:48;4.1;;;3.2;;
51491;SDS011;37569;50.548;8.778;2024-02-14T11:19:48;3.7;;;3.2;;
51491;SDS011;37569;50.548;8.778;2024-02-14T11:24:49;3.6;;;3.1;;
51491;SDS011;37569;50.548;8.778;2024-02-14T11:29:51;5.1;;;3.1;;
51491;SDS011;37569;50.548;8.778;2024-02-14T11:34:53;5.6;;;3.2;;
51491;SDS011;37569;50.548;8.778;2024-02-14T11:39:51;4;;;3.1;;
51491;SDS011;37569;50.548;8.778;2024-02-14T11:44:51;3.1;;;2.8;;
51491;SDS011;37569;50.548;8.778;2024-02-14T11:49:52;4.8;;;2.8;;
51491;SDS011;37569;50.548;8.778;2024-02-14T11:54:53;3.4;;;2.5;;
51491;SDS011;37569;50.548;8.778;2024-02-14T11:59:53;4.1;;;2.6;;
51491;SDS011;37569;50.548;8.778;2024-02-14T12:04:54;4;;;2.6;;
51491;SDS011;37569;50.548;8.778;2024-02-14T12:09:55;4.9;;;2.7;;
51491;SDS011;37569;50.548;8.778;2024-02-14T12:14:55;3.7;;;2.3;;
51491;SDS011;37569;50.548;8.778;2024-02-14T12:20:04;4.2;;;2.5;;
51491;SDS011;37569;50.548;8.778;2024-02-14T12:24:56;4.7;;;2.5;;
51491;SDS011;37569;50.548;8.778;2024-02-14T12:29:57;4.2;;;2.4;;
51491;SDS011;37569;50.548;8.778;2024-02-14T12:34:58;3.5;;;2.3;;
51491;SDS011;37569;50.548;8.778;2024-02-14T12:39:58;3.5;;;2;;
51491;SDS011;37569;50.548;8.778;2024-02-14T12:44:59;3.4;;;2;;
51491;SDS011;37569;50.548;8.778;2024-02-14T12:49:59;2.2;;;1.6;;
51491;SDS011;37569;50.548;8.778;2024-02-14T12:55:00;2.2;;;1.4;;
51491;SDS011;37569;50.548;8.778;2024-02-14T13:00:01;1.9;;;1.3;;
51491;SDS011;37569;50.548;8.778;2024-02-14T13:05:01;1.4;;;1.1;;
51491;SDS011;37569;50.548;8.778;2024-02-14T13:10:02;3;;;1.8;;
51491;SDS011;37569;50.548;8.778;2024-02-14T13:15:03;1.8;;;1.3;;
51491;SDS011;37569;50.548;8.778;2024-02-14T13:20:03;4.5;;;1.4;;
51491;SDS011;37569;50.548;8.778;2024-02-14T13:25:04;2.1;;;1.2;;
51491;SDS011;37569;50.548;8.778;2024-02-14T13:30:05;2.6;;;1.3;;
51491;SDS011;37569;50.548;8.778;2024-02-14T13:35:05;2.9;;;1.4;;
51491;SDS011;37569;50.548;8.778;2024-02-14T13:40:06;2.2;;;1.3;;
51491;SDS011;37569;50.548;8.778;2024-02-14T13:45:07;2.2;;;1.2;;
51491;SDS011;37569;50.548;8.778;2024-02-14T13:50:07;2.4;;;1.4;;
51491;SDS011;37569;50.548;8.778;2024-02-14T13:55:08;3.1;;;1.3;;
51491;SDS011;37569;50.548;8.778;2024-02-14T14:00:08;2.1;;;1.4;;
51491;SDS011;37569;50.548;8.778;2024-02-14T14:05:09;2.4;;;1.5;;
51491;SDS011;37569;50.548;8.778;2024-02-14T14:10:09;2.3;;;1.6;;
51491;SDS011;37569;50.548;8.778;2024-02-14T14:15:10;2.3;;;1.9;;
51491;SDS011;37569;50.548;8.778;2024-02-14T14:20:11;4.3;;;2;;
51491;SDS011;37569;50.548;8.778;2024-02-14T14:25:11;3.8;;;1.9;;
51491;SDS011;37569;50.548;8.778;2024-02-14T14:30:12;2.5;;;1.8;;
51491;SDS011;37569;50.548;8.778;2024-02-14T14:35:12;3.7;;;2.2;;
51491;SDS011;37569;50.548;8.778;2024-02-14T14:40:13;2.6;;;2.2;;
51491;SDS011;37569;50.548;8.778;2024-02-14T14:45:14;4.1;;;2.2;;
51491;SDS011;37569;50.548;8.778;2024-02-14T14:50:14;3.8;;;2.3;;
51491;SDS011;37569;50.548;8.778;2024-02-14T14:55:15;4.2;;;2.4;;
51491;SDS011;37569;50.548;8.778;2024-02-14T15:00:15;3.6;;;2.5;;
51491;SDS011;37569;50.548;8.778;2024-02-14T15:05:16;3.1;;;2.7;;
51491;SDS011;37569;50.548;8.778;2024-02-14T15:10:16;3.8;;;2.9;;
51491;SDS011;37569;50.548;8.778;2024-02-14T15:15:17;5.8;;;2.9;;
51491;SDS011;37569;50.548;8.778;2024-02-14T15:20:18;6;;;3.2;;
51491;SDS011;37569;50.548;8.778;2024-02-14T15:25:18;3.6;;;3;;
51491;SDS011;37569;50.548;8.778;2024-02-14T15:30:19;3.7;;;3.3;;
51491;SDS011;37569;50.548;8.778;2024-02-14T15:35:19;4.1;;;3.3;;
51491;SDS011;37569;50.548;8.778;2024-02-14T15:40:20;4.8;;;3.4;;
51491;SDS011;37569;50.548;8.778;2024-02-14T15:45:20;4.9;;;3.4;;
51491;SDS011;37569;50.548;8.778;2024-02-14T15:50:21;3.9;;;3.5;;
51491;SDS011;37569;50.548;8.778;2024-02-14T15:55:21;5.8;;;3.8;;
51491;SDS011;37569;50.548;8.778;2024-02-14T16:00:22;4.7;;;3.8;;
51491;SDS011;37569;50.548;8.778;2024-02-14T16:05:22;5.2;;;3.9;;
51491;SDS011;37569;50.548;8.778;2024-02-14T16:10:23;5.8;;;4.3;;
51491;SDS011;37569;50.548;8.778;2024-02-14T16:15:24;7.5;;;4.6;;
51491;SDS011;37569;50.548;8.778;2024-02-14T16:20:24;7.9;;;5.5;;
51491;SDS011;37569;50.548;8.778;2024-02-14T16:25:25;6.6;;;5.2;;
51491;SDS011;37569;50.548;8.778;2024-02-14T16:30:25;7.1;;;5.5;;
51491;SDS011;37569;50.548;8.778;2024-02-14T16:35:26;6.4;;;5.5;;
51491;SDS011;37569;50.548;8.778;2024-02-14T16:40:26;7.1;;;5.4;;
51491;SDS011;37569;50.548;8.778;2024-02-14T16:45:27;7.1;;;5.7;;
51491;SDS011;37569;50.548;8.778;2024-02-14T16:50:27;8.1;;;6;;
51491;SDS011;37569;50.548;8.778;2024-02-14T16:55:28;7.8;;;5.8;;
51491;SDS011;37569;50.548;8.778;2024-02-14T17:00:28;8;;;5.7;;
51491;SDS011;37569;50.548;8.778;2024-02-14T17:05:29;7.2;;;5.8;;
51491;SDS011;37569;50.548;8.778;2024-02-14T17:10:29;8.4;;;6.2;;
51491;SDS011;37569;50.548;8.778;2024-02-14T17:15:30;8.4;;;6.6;;
51491;SDS011;37569;50.548;8.778;2024-02-14T17:20:30;9.6;;;7.2;;
51491;SDS011;37569;50.548;8.778;2024-02-14T17:25:31;10.9;;;6.8;;
51491;SDS011;37569;50.548;8.778;2024-02-14T17:30:31;11;;;7.4;;
51491;SDS011;37569;50.548;8.778;2024-02-14T17:35:32;9.1;;;7.7;;
51491;SDS011;37569;50.548;8.778;2024-02-14T17:40:32;13.5;;;8.4;;
51491;SDS011;37569;50.548;8.778;2024-02-14T17:45:33;12.1;;;8.4;;
51491;SDS011;37569;50.548;8.778;2024-02-14T17:50:33;11.5;;;8.6;;
51491;SDS011;37569;50.548;8.778;2024-02-14T17:55:34;10.2;;;8.2;;
51491;SDS011;37569;50.548;8.778;2024-02-14T18:00:35;10.4;;;8.4;;
51491;SDS011;37569;50.548;8.778;2024-02-14T18:05:35;13.4;;;8.5;;
51491;SDS011;37569;50.548;8.778;2024-02-14T18:10:36;10.5;;;8.6;;
51491;SDS011;37569;50.548;8.778;2024-02-14T18:15:36;15.6;;;10.3;;
51491;SDS011;37569;50.548;8.778;2024-02-14T18:20:37;11.4;;;9.2;;
51491;SDS011;37569;50.548;8.778;2024-02-14T18:25:37;11.4;;;8.8;;
51491;SDS011;37569;50.548;8.778;2024-02-14T18:30:38;12.4;;;9.2;;
51491;SDS011;37569;50.548;8.778;2024-02-14T18:35:38;12;;;9.5;;
51491;SDS011;37569;50.548;8.778;2024-02-14T18:40:39;11.8;;;9.3;;
51491;SDS011;37569;50.548;8.778;2024-02-14T18:45:39;10.7;;;8.7;;
51491;SDS011;37569;50.548;8.778;2024-02-14T18:50:40;10.4;;;8.6;;
51491;SDS011;37569;50.548;8.778;2024-02-14T18:55:40;10.3;;;9.2;;
51491;SDS011;37569;50.548;8.778;2024-02-14T19:00:41;10.8;;;8.9;;
51491;SDS011;37569;50.548;8.778;2024-02-14T19:05:41;11;;;9.4;;
51491;SDS011;37569;50.548;8.778;2024-02-14T19:10:42;13.7;;;9.5;;
51491;SDS011;37569;50.548;8.778;2024-02-14T19:15:42;11.1;;;9.5;;
51491;SDS011;37569;50.548;8.778;2024-02-14T19:20:43;10.8;;;9.5;;
51491;SDS011;37569;50.548;8.778;2024-02-14T19:25:43;12.9;;;10.2;;
51491;SDS011;37569;50.548;8.778;2024-02-14T19:30:44;12.7;;;10.1;;
51491;SDS011;37569;50.548;8.778;2024-02-14T19:35:44;12.3;;;10.2;;
51491;SDS011;37569;50.548;8.778;2024-02-14T19:40:45;15.7;;;11;;
51491;SDS011;37569;50.548;8.778;2024-02-14T19:45:45;14.2;;;11.7;;
51491;SDS011;37569;50.548;8.778;2024-02-14T19:50:46;14.3;;;12.2;;
51491;SDS011;37569;50.548;8.778;2024-02-14T19:55:46;16.2;;;11.9;;
51491;SDS011;37569;50.548;8.778;2024-02-14T20:00:47;18.4;;;14;;
51491;SDS011;37569;50.548;8.778;2024-02-14T20:05:47;14.9;;;11.6;;
51491;SDS011;37569;50.548;8.778;2024-02-14T20:10:48;15.3;;;11.8;;
51491;SDS011;37569;50.548;8.778;2024-02-14T20:15:48;14.2;;;11.5;;
51491;SDS011;37569;50.548;8.778;2024-02-14T20:20:49;16.6;;;12.1;;
51491;SDS011;37569;50.548;8.778;2024-02-14T20:25:49;16.3;;;13;;
51491;SDS011;37569;50.548;8.778;2024-02-14T20:30:51;14.4;;;12.7;;
51491;SDS011;37569;50.548;8.778;2024-02-14T20:35:50;15.5;;;13.3;;
51491;SDS011;37569;50.548;8.778;2024-02-14T20:40:51;15.3;;;12.5;;
51491;SDS011;37569;50.548;8.778;2024-02-14T20:45:51;18.8;;;13.3;;
51491;SDS011;37569;50.548;8.778;2024-02-14T20:50:52;21;;;16.3;;
51491;SDS011;37569;50.548;8.778;2024-02-14T20:55:53;20.2;;;14.7;;
51491;SDS011;37569;50.548;8.778;2024-02-14T21:00:53;19.3;;;14.5;;
51491;SDS011;37569;50.548;8.778;2024-02-14T21:05:54;20.5;;;14.7;;
51491;SDS011;37569;50.548;8.778;2024-02-14T21:10:54;17.6;;;13.5;;
51491;SDS011;37569;50.548;8.778;2024-02-14T21:15:55;17;;;13.4;;
51491;SDS011;37569;50.548;8.778;2024-02-14T21:20:55;19.7;;;13.6;;
51491;SDS011;37569;50.548;8.778;2024-02-14T21:25:56;17;;;12.7;;
51491;SDS011;37569;50.548;8.778;2024-02-14T21:30:56;17.4;;;13.1;;
51491;SDS011;37569;50.548;8.778;2024-02-14T21:35:57;17.5;;;12.7;;
51491;SDS011;37569;50.548;8.778;2024-02-14T21:40:57;17;;;12.7;;
51491;SDS011;37569;50.548;8.778;2024-02-14T21:45:58;15.2;;;11.3;;
51491;SDS011;37569;50.548;8.778;2024-02-14T21:50:59;19.6;;;12;;
51491;SDS011;37569;50.548;8.778;2024-02-14T21:55:59;14.8;;;11.6;;
51491;SDS011;37569;50.548;8.778;2024-02-14T22:01:00;16;;;11.4;;
51491;SDS011;37569;50.548;8.778;2024-02-14T22:06:00;15.7;;;11.2;;
51491;SDS011;37569;50.548;8.778;2024-02-14T22:11:01;17.6;;;11.8;;
51491;SDS011;37569;50.548;8.778;2024-02-14T22:16:01;17.4;;;12.1;;
51491;SDS011;37569;50.548;8.778;2024-02-14T22:21:02;15.8;;;11.6;;
51491;SDS011;37569;50.548;8.778;2024-02-14T22:26:02;15.8;;;11.6;;
51491;SDS011;37569;50.548;8.778;2024-02-14T22:31:03;17.5;;;12.3;;
51491;SDS011;37569;50.548;8.778;2024-02-14T22:36:03;18.3;;;12.9;;
51491;SDS011;37569;50.548;8.778;2024-02-14T22:41:04;15.8;;;12.2;;
51491;SDS011;37569;50.548;8.778;2024-02-14T22:46:05;15.7;;;12.1;;
51491;SDS011;37569;50.548;8.778;2024-02-14T22:51:05;17.8;;;13.2;;
51491;SDS011;37569;50.548;8.778;2024-02-14T22:56:06;18.2;;;13.6;;
51491;SDS011;37569;50.548;8.778;2024-02-14T23:01:06;17.3;;;13.6;;
51491;SDS011;37569;50.548;8.778;2024-02-14T23:06:07;19.4;;;14;;
51491;SDS011;37569;50.548;8.778;2024-02-14T23:11:07;22.3;;;14.4;;
51491;SDS011;37569;50.548;8.778;2024-02-14T23:16:09;19.2;;;13.6;;
51491;SDS011;37569;50.548;8.778;2024-02-14T23:21:08;18.2;;;13;;
51491;SDS011;37569;50.548;8.778;2024-02-14T23:26:09;16.9;;;12.3;;
51491;SDS011;37569;50.548;8.778;2024-02-14T23:31:09;14.8;;;10.8;;
51491;SDS011;37569;50.548;8.778;2024-02-14T23:36:10;16.9;;;11;;
51491;SDS011;37569;50.548;8.778;2024-02-14T23:41:10;13.4;;;9.9;;
51491;SDS011;37569;50.548;8.778;2024-02-14T23:46:11;13.8;;;9.9;;
51491;SDS011;37569;50.548;8.778;2024-02-14T23:51:11;15.4;;;11.1;;
51491;SDS011;37569;50.548;8.778;2024-02-14T23:56:12;15.1;;;10.9;;
